Time;durP1;ratioP1;P1;durP2;ratioP2;P2;SDS_P1;SDS_P2;PMS_P1;PMS_P2;Temp;Humidity;BMP_temperature;BMP_pressure;BME280_temperature;BME280_humidity;BME280_pressure;Samples;Min_cycle;Max_cycle;Signal;HPM_P1;HPM_P2
2023/01/29 00:01:54;;;;;;;7.40;6.97;;;19.80;35.20;;;;;;4955891;28;20998;-66
2023/01/29 00:04:20;;;;;;;7.50;7.07;;;19.80;35.20;;;;;;4957187;28;20225;-66
2023/01/29 00:06:46;;;;;;;8.07;7.47;;;19.80;35.10;;;;;;4953609;28;20470;-65
2023/01/29 00:09:12;;;;;;;7.57;7.07;;;19.80;35.20;;;;;;4956157;28;20229;-63
2023/01/29 00:11:38;;;;;;;8.07;7.40;;;19.70;35.10;;;;;;4954940;28;20275;-64
2023/01/29 00:14:04;;;;;;;7.13;6.67;;;19.80;35.20;;;;;;4961591;28;20459;-64
2023/01/29 00:16:30;;;;;;;7.87;7.27;;;19.80;35.20;;;;;;4957795;28;22075;-64
2023/01/29 00:18:55;;;;;;;8.23;7.63;;;19.70;35.10;;;;;;4959794;28;20469;-63
2023/01/29 00:21:21;;;;;;;7.77;7.27;;;19.70;35.10;;;;;;4958497;28;20232;-67
2023/01/29 00:23:48;;;;;;;7.30;6.70;;;19.70;35.10;;;;;;4955104;28;20231;-62
2023/01/29 00:26:14;;;;;;;7.50;7.00;;;19.70;35.10;;;;;;4959797;28;20459;-65
2023/01/29 00:28:40;;;;;;;7.43;7.03;;;19.80;35.20;;;;;;4959877;28;20461;-66
2023/01/29 00:31:07;;;;;;;7.33;6.83;;;19.70;35.10;;;;;;4958976;28;20530;-69
2023/01/29 00:33:33;;;;;;;7.63;7.17;;;19.70;35.10;;;;;;4961375;28;20524;-66
2023/01/29 00:36:02;;;;;;;7.10;6.70;;;19.70;35.10;;;;;;4958364;28;20464;-63
2023/01/29 00:38:27;;;;;;;7.93;7.27;;;19.70;35.10;;;;;;4963131;28;20307;-62
2023/01/29 00:46:21;;;;;;;8.17;7.37;;;19.80;35.90;;;;;;4958265;28;22095;-64
2023/01/29 00:48:46;;;;;;;8.53;7.93;;;19.80;35.10;;;;;;4958931;28;20475;-63
2023/01/29 00:51:12;;;;;;;7.30;6.90;;;19.80;35.10;;;;;;4955866;28;20233;-66
2023/01/29 00:53:37;;;;;;;7.17;6.67;;;19.70;35.10;;;;;;4954936;28;22239;-63
2023/01/29 00:56:03;;;;;;;7.57;7.07;;;19.80;35.10;;;;;;4958154;28;20287;-63
2023/01/29 00:58:33;;;;;;;6.80;6.40;;;19.80;35.10;;;;;;4960942;28;20788;-62
2023/01/29 01:01:00;;;;;;;7.63;7.13;;;19.80;35.10;;;;;;4956258;28;20221;-62
2023/01/29 01:03:25;;;;;;;7.20;6.80;;;19.80;35.80;;;;;;4951895;28;21068;-66
2023/01/29 01:06:03;;;;;;;7.10;6.60;;;19.80;35.00;;;;;;4955107;28;20454;-66
2023/01/29 01:11:13;;;;;;;7.10;6.70;;;19.80;35.00;;;;;;4953710;28;20444;-68
2023/01/29 01:13:38;;;;;;;7.03;6.53;;;19.80;35.00;;;;;;4956048;28;20466;-68
2023/01/29 01:16:17;;;;;;;8.13;7.37;;;19.80;35.00;;;;;;4954928;28;20229;-70
2023/01/29 01:18:43;;;;;;;7.30;6.80;;;19.80;35.00;;;;;;4952553;28;20623;-62
2023/01/29 01:21:08;;;;;;;7.13;6.70;;;19.80;34.90;;;;;;4950439;28;20466;-63
2023/01/29 01:23:34;;;;;;;7.70;7.20;;;19.80;35.00;;;;;;4950612;28;20236;-66
2023/01/29 01:26:00;;;;;;;6.50;6.07;;;19.80;35.00;;;;;;4955490;28;20260;-63
2023/01/29 01:28:26;;;;;;;6.97;6.47;;;19.70;34.90;;;;;;4955006;28;20674;-65
2023/01/29 01:30:51;;;;;;;6.90;6.50;;;19.80;35.00;;;;;;4954771;28;20229;-63
2023/01/29 01:33:17;;;;;;;6.67;6.27;;;19.80;35.00;;;;;;4957465;28;21128;-61
2023/01/29 01:35:42;;;;;;;6.97;6.57;;;19.80;35.00;;;;;;4951213;28;20247;-65
2023/01/29 01:38:08;;;;;;;7.03;6.43;;;19.80;35.00;;;;;;4957965;28;20220;-63
2023/01/29 01:40:34;;;;;;;6.93;6.43;;;19.80;35.00;;;;;;4956636;28;20219;-64
2023/01/29 01:42:59;;;;;;;6.63;6.13;;;19.80;35.00;;;;;;4959260;28;20236;-68
2023/01/29 01:45:30;;;;;;;6.23;5.83;;;19.80;35.00;;;;;;4956582;28;20222;-64
2023/01/29 01:48:05;;;;;;;7.33;6.77;;;19.80;35.00;;;;;;4956357;28;20267;-63
2023/01/29 01:50:48;;;;;;;6.67;6.27;;;19.80;35.00;;;;;;4954727;28;20477;-63
2023/01/29 01:53:25;;;;;;;6.67;6.27;;;19.80;35.00;;;;;;4947916;28;20473;-67
2023/01/29 01:55:59;;;;;;;6.87;6.20;;;19.80;35.00;;;;;;4950688;28;22264;-67
2023/01/29 01:58:32;;;;;;;6.70;6.20;;;19.80;35.00;;;;;;4956592;28;20458;-63
2023/01/29 02:00:58;;;;;;;7.13;6.63;;;19.80;35.00;;;;;;4952329;28;20481;-69
2023/01/29 02:11:44;;;;;;;6.50;6.10;;;19.80;35.00;;;;;;4954464;28;20478;-67
2023/01/29 02:14:11;;;;;;;6.10;5.73;;;19.80;35.00;;;;;;4955706;28;20467;-63
2023/01/29 02:16:37;;;;;;;6.20;5.90;;;19.80;35.00;;;;;;4957015;28;20228;-68
2023/01/29 02:19:09;;;;;;;5.97;5.67;;;19.80;35.00;;;;;;4956101;28;20473;-64
2023/01/29 02:21:58;;;;;;;5.80;5.50;;;19.80;34.90;;;;;;4948619;28;20477;-64
2023/01/29 02:24:44;;;;;;;5.97;5.67;;;19.80;34.90;;;;;;4953352;28;20505;-66
2023/01/29 02:27:28;;;;;;;6.17;5.77;;;19.80;34.90;;;;;;4955957;28;21002;-64
2023/01/29 02:30:22;;;;;;;6.20;5.70;;;19.80;34.90;;;;;;4954825;28;20450;-66
2023/01/29 02:33:00;;;;;;;6.73;6.23;;;19.80;34.90;;;;;;4957436;28;20497;-64
2023/01/29 02:35:36;;;;;;;5.87;5.57;;;19.80;34.80;;;;;;4954866;28;20485;-65
2023/01/29 02:38:28;;;;;;;5.50;5.10;;;19.80;34.90;;;;;;4956032;28;20462;-65
2023/01/29 02:41:13;;;;;;;5.67;5.27;;;19.90;34.90;;;;;;4955088;28;20824;-66
2023/01/29 02:43:49;;;;;;;5.20;4.90;;;19.80;34.80;;;;;;4955813;28;20817;-64
2023/01/29 02:46:27;;;;;;;5.90;5.60;;;19.80;34.80;;;;;;4954849;28;20528;-64
2023/01/29 02:49:34;;;;;;;6.80;6.30;;;19.80;34.80;;;;;;4956694;28;20506;-63
2023/01/29 02:52:08;;;;;;;6.37;5.87;;;19.90;34.90;;;;;;4955301;28;20462;-65
2023/01/29 02:54:41;;;;;;;5.60;5.30;;;19.80;34.80;;;;;;4951751;28;20844;-65
2023/01/29 02:57:20;;;;;;;6.10;5.70;;;19.90;34.90;;;;;;4954539;28;20463;-66
2023/01/29 02:59:54;;;;;;;6.50;6.10;;;19.90;34.80;;;;;;4956957;28;20994;-71
2023/01/29 03:02:29;;;;;;;6.00;5.53;;;19.90;34.90;;;;;;4953826;28;20482;-67
2023/01/29 03:05:00;;;;;;;6.50;6.10;;;19.90;34.80;;;;;;4952028;28;20462;-62
2023/01/29 03:07:44;;;;;;;5.07;4.77;;;19.90;34.80;;;;;;4955808;28;20495;-65
2023/01/29 03:10:19;;;;;;;5.67;5.27;;;19.90;34.80;;;;;;4954711;28;20548;-66
2023/01/29 03:12:50;;;;;;;6.20;5.80;;;19.90;34.90;;;;;;4957610;28;20470;-63
2023/01/29 03:15:25;;;;;;;6.40;6.00;;;19.80;34.80;;;;;;4956024;28;20475;-63
2023/01/29 03:17:58;;;;;;;5.70;5.20;;;19.80;34.80;;;;;;4957811;28;20428;-62
2023/01/29 03:20:32;;;;;;;5.67;5.30;;;19.80;34.80;;;;;;4955123;28;20504;-66
2023/01/29 03:23:25;;;;;;;5.23;4.83;;;19.80;34.80;;;;;;4956244;28;20466;-69
2023/01/29 03:34:33;;;;;;;5.47;5.07;;;19.80;34.80;;;;;;4954201;28;21127;-65
2023/01/29 03:37:03;;;;;;;5.60;5.20;;;19.80;34.90;;;;;;4956329;28;21033;-63
2023/01/29 03:39:29;;;;;;;6.17;5.67;;;19.80;34.80;;;;;;4956784;28;20468;-68
2023/01/29 03:41:56;;;;;;;5.10;4.80;;;19.80;34.80;;;;;;4956764;28;20568;-64
2023/01/29 03:44:36;;;;;;;5.27;4.97;;;19.80;34.80;;;;;;4955098;28;20454;-67
2023/01/29 03:47:23;;;;;;;4.70;4.50;;;19.80;34.80;;;;;;4953688;28;20558;-65
2023/01/29 03:50:18;;;;;;;4.80;4.50;;;19.80;34.70;;;;;;4955859;28;20490;-68
2023/01/29 03:53:04;;;;;;;4.83;4.53;;;19.80;34.70;;;;;;4954578;28;20513;-64
2023/01/29 03:55:36;;;;;;;5.50;4.90;;;19.80;34.70;;;;;;4951696;28;20529;-64
2023/01/29 03:58:37;;;;;;;5.10;4.80;;;19.80;34.70;;;;;;4955152;28;20553;-70
2023/01/29 04:01:19;;;;;;;5.03;4.80;;;19.80;34.60;;;;;;4948461;28;20804;-67
2023/01/29 04:03:51;;;;;;;4.93;4.63;;;19.80;34.60;;;;;;4955059;28;20490;-63
2023/01/29 04:06:21;;;;;;;4.80;4.50;;;19.80;34.60;;;;;;4952362;28;20513;-65
2023/01/29 04:09:09;;;;;;;5.10;4.80;;;19.80;34.60;;;;;;4954670;28;21005;-63
2023/01/29 04:11:40;;;;;;;5.37;5.03;;;19.80;34.60;;;;;;4954791;28;20471;-69
2023/01/29 04:14:07;;;;;;;4.73;4.53;;;19.80;34.70;;;;;;4953415;28;20974;-70
2023/01/29 04:16:37;;;;;;;5.27;4.87;;;19.80;34.60;;;;;;4955326;28;21101;-69
2023/01/29 04:19:04;;;;;;;5.03;4.50;;;19.80;34.60;;;;;;4958479;28;20467;-69
2023/01/29 04:21:33;;;;;;;5.10;4.80;;;19.80;34.70;;;;;;4954149;28;21108;-65
2023/01/29 04:23:59;;;;;;;4.93;4.53;;;19.80;34.70;;;;;;4952656;28;20467;-69
2023/01/29 04:26:46;;;;;;;5.27;4.80;;;19.80;34.70;;;;;;4950053;28;21297;-67
2023/01/29 04:29:49;;;;;;;5.50;5.10;;;19.80;34.80;;;;;;4950347;28;22743;-70
2023/01/29 04:32:31;;;;;;;4.93;4.63;;;19.80;34.80;;;;;;4952740;28;20463;-67
2023/01/29 04:35:16;;;;;;;4.80;4.60;;;19.80;35.60;;;;;;4952241;28;20485;-65
2023/01/29 04:37:53;;;;;;;4.53;4.27;;;19.80;34.80;;;;;;4951355;28;20470;-70
2023/01/29 04:40:36;;;;;;;5.50;5.10;;;19.90;34.80;;;;;;4951565;28;20505;-67
2023/01/29 04:43:12;;;;;;;5.00;4.70;;;19.90;34.70;;;;;;4955331;28;20498;-67
2023/01/29 04:45:44;;;;;;;5.67;5.20;;;19.90;34.60;;;;;;4954540;28;20478;-65
2023/01/29 04:48:17;;;;;;;4.90;4.60;;;19.90;34.50;;;;;;4952387;28;20478;-64
2023/01/29 04:50:51;;;;;;;4.50;4.30;;;20.00;34.40;;;;;;4951867;28;20497;-68
2023/01/29 04:53:41;;;;;;;6.00;5.50;;;20.00;34.40;;;;;;4953648;28;20936;-63
2023/01/29 04:56:21;;;;;;;4.73;4.50;;;20.00;34.20;;;;;;4953512;28;20449;-66
2023/01/29 04:58:55;;;;;;;4.40;4.20;;;20.00;34.10;;;;;;4957987;28;20591;-64
2023/01/29 05:01:28;;;;;;;6.63;5.43;;;20.10;34.10;;;;;;4956630;28;20471;-62
2023/01/29 05:03:55;;;;;;;5.00;4.60;;;20.10;33.80;;;;;;4957449;28;20474;-65
2023/01/29 05:06:23;;;;;;;4.33;4.13;;;20.10;33.70;;;;;;4957162;28;20556;-74
2023/01/29 05:08:50;;;;;;;4.03;3.83;;;20.20;33.80;;;;;;4959420;28;20466;-67
2023/01/29 05:11:19;;;;;;;4.50;4.13;;;20.20;33.80;;;;;;4958065;28;20470;-71
2023/01/29 05:13:47;;;;;;;4.70;4.33;;;20.30;33.90;;;;;;4957658;28;20454;-62
2023/01/29 05:16:22;;;;;;;4.00;3.80;;;20.20;33.80;;;;;;4954192;28;20475;-73
2023/01/29 05:18:48;;;;;;;4.50;4.20;;;20.30;33.90;;;;;;4959876;28;20466;-66
2023/01/29 05:21:13;;;;;;;5.07;4.77;;;20.30;33.90;;;;;;4954316;28;20461;-69
2023/01/29 05:23:51;;;;;;;5.00;4.70;;;20.40;34.00;;;;;;4957487;28;20645;-67
2023/01/29 05:29:03;;;;;;;4.80;4.50;;;20.40;34.00;;;;;;4956199;28;20481;-66
2023/01/29 05:31:28;;;;;;;4.70;4.47;;;20.40;34.00;;;;;;4956994;28;20450;-67
2023/01/29 05:33:54;;;;;;;4.63;4.13;;;20.40;34.00;;;;;;4959607;28;20227;-64
2023/01/29 05:36:20;;;;;;;4.83;4.30;;;20.40;34.00;;;;;;4960749;28;20216;-63
2023/01/29 05:38:45;;;;;;;5.10;4.80;;;20.50;34.10;;;;;;4958004;28;20999;-63
2023/01/29 05:41:11;;;;;;;4.40;4.20;;;20.50;34.10;;;;;;4960078;28;20570;-66
2023/01/29 05:43:36;;;;;;;4.60;4.40;;;20.40;34.00;;;;;;4959148;28;20229;-63
2023/01/29 05:46:02;;;;;;;4.63;4.33;;;20.40;34.00;;;;;;4958035;28;20878;-68
2023/01/29 05:48:30;;;;;;;4.13;3.93;;;20.40;34.00;;;;;;4960380;28;20683;-63
2023/01/29 05:50:59;;;;;;;4.53;4.27;;;20.40;34.00;;;;;;4954550;28;20224;-69
2023/01/29 05:53:25;;;;;;;4.57;4.27;;;20.40;34.00;;;;;;4952980;28;20471;-63
2023/01/29 05:55:51;;;;;;;4.17;3.97;;;20.40;34.00;;;;;;4947443;28;20446;-67
2023/01/29 05:58:18;;;;;;;3.80;3.60;;;20.30;34.00;;;;;;4959916;28;20229;-63
2023/01/29 06:00:44;;;;;;;4.10;3.80;;;20.30;33.90;;;;;;4960219;28;20216;-68
2023/01/29 06:03:10;;;;;;;4.40;4.20;;;20.30;33.90;;;;;;4958240;28;20821;-65
2023/01/29 06:05:39;;;;;;;4.60;4.30;;;20.30;33.90;;;;;;4959971;28;20268;-66
2023/01/29 06:08:05;;;;;;;4.07;3.87;;;20.30;34.00;;;;;;4959388;28;20462;-67
2023/01/29 06:10:31;;;;;;;4.50;4.20;;;20.30;33.90;;;;;;4955782;28;20462;-67
2023/01/29 06:12:56;;;;;;;4.10;3.90;;;20.30;33.90;;;;;;4958699;28;20444;-67
2023/01/29 06:15:23;;;;;;;4.83;4.53;;;20.30;33.90;;;;;;4956759;28;20320;-63
2023/01/29 06:17:49;;;;;;;4.73;4.43;;;20.30;34.00;;;;;;4952013;28;20228;-66
2023/01/29 06:20:14;;;;;;;4.23;4.03;;;20.40;34.00;;;;;;4953549;28;20524;-67
2023/01/29 06:22:40;;;;;;;3.53;3.33;;;20.40;34.00;;;;;;4957918;28;20244;-64
2023/01/29 06:25:06;;;;;;;3.73;3.53;;;20.40;34.00;;;;;;4946930;28;20225;-64
2023/01/29 06:27:31;;;;;;;5.37;5.07;;;20.40;34.00;;;;;;4955388;28;20217;-69
2023/01/29 06:29:57;;;;;;;3.90;3.70;;;20.40;34.00;;;;;;4954005;28;20839;-66
2023/01/29 06:32:22;;;;;;;3.77;3.57;;;20.40;34.00;;;;;;4950314;28;20224;-69
2023/01/29 06:34:48;;;;;;;4.13;3.83;;;20.40;34.00;;;;;;4953403;28;20233;-65
2023/01/29 06:37:13;;;;;;;3.77;3.57;;;20.50;34.10;;;;;;4952328;28;20232;-66
2023/01/29 06:39:39;;;;;;;4.20;4.00;;;20.40;34.00;;;;;;4950707;28;20228;-65
2023/01/29 06:42:04;;;;;;;4.17;3.87;;;20.40;34.00;;;;;;4954638;28;20235;-65
2023/01/29 06:44:30;;;;;;;4.40;4.20;;;20.40;34.30;;;;;;4952858;28;20757;-64
2023/01/29 06:46:55;;;;;;;4.17;3.97;;;20.40;34.00;;;;;;4952409;28;20560;-64
2023/01/29 06:49:22;;;;;;;4.70;4.40;;;20.40;34.00;;;;;;4953266;28;20252;-66
2023/01/29 06:51:47;;;;;;;4.53;4.23;;;20.30;33.90;;;;;;4955417;28;20240;-65
2023/01/29 06:54:13;;;;;;;3.80;3.60;;;20.40;34.00;;;;;;4954443;28;20470;-65
2023/01/29 06:56:38;;;;;;;4.40;4.10;;;20.30;33.90;;;;;;4952827;28;20224;-64
2023/01/29 06:59:04;;;;;;;4.63;4.23;;;20.30;34.00;;;;;;4954554;28;20330;-65
2023/01/29 07:01:30;;;;;;;4.53;4.33;;;20.30;33.90;;;;;;4953980;28;20223;-65
2023/01/29 07:03:55;;;;;;;3.80;3.60;;;20.30;33.90;;;;;;4954034;28;21354;-67
2023/01/29 07:06:27;;;;;;;4.03;3.83;;;20.30;33.90;;;;;;4948748;28;20240;-65
2023/01/29 07:08:52;;;;;;;4.17;3.87;;;20.30;33.90;;;;;;4936773;28;20225;-64
2023/01/29 07:11:17;;;;;;;4.27;3.93;;;20.30;33.90;;;;;;4953354;28;20455;-68
2023/01/29 07:13:43;;;;;;;4.07;3.80;;;20.30;33.90;;;;;;4952531;28;20228;-68
2023/01/29 07:16:09;;;;;;;6.53;4.40;;;20.30;33.90;;;;;;4956729;28;20224;-65
2023/01/29 07:18:34;;;;;;;4.83;4.20;;;20.30;34.00;;;;;;4954379;28;20229;-67
2023/01/29 07:21:05;;;;;;;4.40;4.20;;;20.30;33.90;;;;;;4945467;28;20225;-64
2023/01/29 07:23:30;;;;;;;4.90;4.60;;;20.30;34.00;;;;;;4946956;28;20300;-65
2023/01/29 07:26:00;;;;;;;4.20;3.90;;;20.30;33.90;;;;;;4952276;28;20487;-65
2023/01/29 07:28:26;;;;;;;4.83;4.43;;;20.30;33.90;;;;;;4955700;28;20235;-68
2023/01/29 07:30:58;;;;;;;4.83;4.17;;;20.30;33.90;;;;;;4951307;28;20848;-65
2023/01/29 07:33:24;;;;;;;4.77;4.37;;;20.30;33.90;;;;;;4949963;28;20232;-70
2023/01/29 07:35:49;;;;;;;4.10;3.90;;;20.30;34.00;;;;;;4954801;28;21243;-65
2023/01/29 07:38:15;;;;;;;4.73;4.43;;;20.30;33.90;;;;;;4954771;28;20473;-66
2023/01/29 07:40:40;;;;;;;3.97;3.67;;;20.40;34.00;;;;;;4953905;28;20248;-64
2023/01/29 07:43:06;;;;;;;4.40;4.10;;;20.40;34.00;;;;;;4948497;28;20240;-64
2023/01/29 07:45:37;;;;;;;14.83;4.73;;;20.40;34.00;;;;;;4952847;28;20547;-66
2023/01/29 07:48:03;;;;;;;4.90;4.40;;;20.40;34.00;;;;;;4955202;28;21052;-62
2023/01/29 07:50:30;;;;;;;4.13;3.83;;;20.40;34.10;;;;;;4956568;28;20545;-76
2023/01/29 07:52:56;;;;;;;5.53;5.03;;;20.40;34.00;;;;;;4954603;28;20514;-69
2023/01/29 07:55:21;;;;;;;7.23;5.80;;;20.40;34.00;;;;;;4949727;28;20468;-62
2023/01/29 07:57:53;;;;;;;4.20;4.00;;;20.40;34.00;;;;;;4951165;28;20279;-66
2023/01/29 08:00:19;;;;;;;3.97;3.77;;;20.40;34.00;;;;;;4952339;28;20221;-66
2023/01/29 08:02:45;;;;;;;5.20;4.80;;;20.30;33.90;;;;;;4957436;28;20502;-66
2023/01/29 08:05:10;;;;;;;5.57;5.07;;;20.30;34.00;;;;;;4955452;28;21117;-61
2023/01/29 08:07:36;;;;;;;4.10;3.90;;;20.30;33.90;;;;;;4956932;28;20216;-61
2023/01/29 08:10:01;;;;;;;5.80;4.50;;;20.30;33.90;;;;;;4955473;28;20687;-65
2023/01/29 08:12:27;;;;;;;4.20;4.00;;;20.30;33.90;;;;;;4956560;28;20236;-62
2023/01/29 08:14:52;;;;;;;3.80;3.50;;;20.30;33.90;;;;;;4955552;28;20319;-66
2023/01/29 08:17:18;;;;;;;6.23;4.33;;;20.30;33.90;;;;;;4956366;28;20881;-64
2023/01/29 08:19:43;;;;;;;4.17;3.90;;;20.30;33.90;;;;;;4956855;28;20225;-63
2023/01/29 08:22:09;;;;;;;4.63;4.33;;;20.20;33.90;;;;;;4952595;28;20244;-68
2023/01/29 08:24:35;;;;;;;4.13;3.83;;;20.20;33.80;;;;;;4956163;28;20270;-62
2023/01/29 08:27:00;;;;;;;3.87;3.67;;;20.30;33.90;;;;;;4955483;28;20221;-63
2023/01/29 08:29:26;;;;;;;3.80;3.60;;;20.30;33.90;;;;;;4953611;28;20239;-66
2023/01/29 08:31:51;;;;;;;4.70;4.40;;;20.20;33.80;;;;;;4955701;28;20236;-60
2023/01/29 08:34:17;;;;;;;3.63;3.43;;;20.30;33.90;;;;;;4959300;28;20275;-63
2023/01/29 08:36:42;;;;;;;4.40;4.20;;;20.30;33.90;;;;;;4957664;28;20224;-63
2023/01/29 08:39:08;;;;;;;4.40;4.10;;;20.30;33.90;;;;;;4962293;28;21813;-61
2023/01/29 08:41:34;;;;;;;4.67;4.37;;;20.30;33.90;;;;;;4956117;28;20263;-63
2023/01/29 08:44:01;;;;;;;4.80;4.50;;;20.20;33.80;;;;;;4961865;28;20232;-63
2023/01/29 08:46:26;;;;;;;4.67;4.37;;;20.30;33.90;;;;;;4954799;28;20235;-67
2023/01/29 08:48:52;;;;;;;4.00;3.70;;;20.30;33.90;;;;;;4960202;28;20433;-71
2023/01/29 08:51:17;;;;;;;4.20;3.90;;;20.20;33.80;;;;;;4958878;28;20311;-64
2023/01/29 08:53:43;;;;;;;4.40;3.97;;;20.30;34.00;;;;;;4957903;28;20224;-66
2023/01/29 08:56:09;;;;;;;4.50;4.10;;;20.20;33.80;;;;;;4959793;28;20236;-63
2023/01/29 08:58:34;;;;;;;4.40;4.00;;;20.30;33.90;;;;;;4958738;28;20217;-65
2023/01/29 09:01:07;;;;;;;4.50;4.13;;;20.20;34.00;;;;;;4957575;28;20223;-71
2023/01/29 09:03:33;;;;;;;3.80;3.60;;;20.20;34.00;;;;;;4958354;28;20712;-70
2023/01/29 09:05:58;;;;;;;4.40;4.20;;;20.20;34.10;;;;;;4958905;28;20433;-60
2023/01/29 09:08:24;;;;;;;3.83;3.63;;;20.20;34.10;;;;;;4959832;28;20246;-63
2023/01/29 09:10:49;;;;;;;4.53;3.93;;;20.20;34.10;;;;;;4956043;28;20229;-62
2023/01/29 09:13:15;;;;;;;5.23;4.60;;;20.20;34.20;;;;;;4960065;28;20254;-61
2023/01/29 09:15:40;;;;;;;4.03;3.73;;;20.20;34.20;;;;;;4959162;28;20305;-64
2023/01/29 09:18:06;;;;;;;4.67;4.27;;;20.20;34.30;;;;;;4960394;28;20291;-64
2023/01/29 09:20:32;;;;;;;4.57;4.07;;;20.30;34.50;;;;;;4951140;28;20306;-61
2023/01/29 09:23:02;;;;;;;5.53;4.30;;;20.20;34.50;;;;;;4957950;28;20317;-62
2023/01/29 09:25:27;;;;;;;4.40;3.97;;;20.30;34.60;;;;;;4957676;28;20518;-64
2023/01/29 09:27:53;;;;;;;8.47;3.80;;;20.20;34.50;;;;;;4959570;28;21351;-62
2023/01/29 09:30:19;;;;;;;3.93;3.63;;;20.30;34.60;;;;;;4956696;28;20733;-64
2023/01/29 09:32:44;;;;;;;5.03;4.73;;;20.30;34.70;;;;;;4958108;28;20228;-61
2023/01/29 09:35:10;;;;;;;4.27;4.07;;;20.30;34.70;;;;;;4954193;28;20233;-68
2023/01/29 09:37:35;;;;;;;3.80;3.60;;;20.30;34.70;;;;;;4954968;28;20852;-62
2023/01/29 09:40:01;;;;;;;4.73;4.43;;;20.30;34.80;;;;;;4960194;28;20620;-63
2023/01/29 09:43:06;;;;;;;4.40;4.10;;;20.30;35.10;;;;;;4996992;28;20583;-64
2023/01/29 09:45:32;;;;;;;4.33;4.13;;;20.30;34.80;;;;;;4972992;28;20458;-65
2023/01/29 09:48:02;;;;;;;4.00;3.80;;;20.20;34.70;;;;;;4976520;28;21273;-68
2023/01/29 09:50:35;;;;;;;4.10;3.57;;;20.30;34.80;;;;;;4982699;28;21036;-67
2023/01/29 09:53:10;;;;;;;6.40;4.57;;;20.30;34.80;;;;;;4983965;28;20803;-59
2023/01/29 09:55:47;;;;;;;4.53;4.23;;;20.30;34.80;;;;;;4985735;28;20528;-67
2023/01/29 09:58:17;;;;;;;3.70;3.50;;;20.20;34.80;;;;;;4983243;28;20891;-60
2023/01/29 10:00:47;;;;;;;4.10;3.80;;;20.20;34.80;;;;;;4973986;28;21020;-65
2023/01/29 10:03:39;;;;;;;4.03;3.73;;;20.30;34.80;;;;;;4971837;28;20466;-62
2023/01/29 10:06:31;;;;;;;3.87;3.67;;;20.20;34.70;;;;;;4978303;28;20458;-59
2023/01/29 10:09:13;;;;;;;3.53;3.33;;;20.20;34.70;;;;;;4978641;28;20457;-62
2023/01/29 10:12:05;;;;;;;4.17;3.87;;;20.30;34.80;;;;;;4975536;28;20477;-67
2023/01/29 10:15:01;;;;;;;4.10;3.90;;;20.20;34.70;;;;;;4983082;28;20449;-62
2023/01/29 10:17:35;;;;;;;3.53;3.23;;;20.30;34.80;;;;;;4982080;28;20437;-68
2023/01/29 10:20:28;;;;;;;3.27;3.07;;;20.30;34.80;;;;;;4970866;28;20448;-66
2023/01/29 10:23:05;;;;;;;3.80;3.60;;;20.20;34.70;;;;;;4970873;28;21226;-62
2023/01/29 10:25:35;;;;;;;3.43;3.23;;;20.20;34.70;;;;;;4978183;28;20463;-60
2023/01/29 10:28:00;;;;;;;3.80;3.60;;;20.30;34.80;;;;;;4975321;28;20843;-60
2023/01/29 10:30:38;;;;;;;4.23;4.03;;;20.30;34.80;;;;;;4974171;28;20930;-60
2023/01/29 10:33:06;;;;;;;3.93;3.63;;;20.30;34.70;;;;;;4975629;28;20722;-62
2023/01/29 10:35:38;;;;;;;3.73;3.53;;;20.30;34.70;;;;;;4971369;28;20588;-62
2023/01/29 10:38:23;;;;;;;3.57;3.37;;;20.30;34.70;;;;;;4971722;28;20722;-60
2023/01/29 10:41:11;;;;;;;3.47;3.27;;;20.30;34.60;;;;;;4971059;28;20465;-69
2023/01/29 10:43:52;;;;;;;3.47;3.23;;;20.30;34.60;;;;;;4983750;28;21097;-66
2023/01/29 10:46:20;;;;;;;3.30;3.10;;;20.20;34.50;;;;;;4975133;28;20498;-63
2023/01/29 10:48:59;;;;;;;3.97;3.77;;;20.20;34.50;;;;;;4976924;28;20549;-64
2023/01/29 10:51:39;;;;;;;3.40;3.20;;;20.30;34.50;;;;;;4974625;28;20468;-68
2023/01/29 10:54:20;;;;;;;3.80;3.60;;;20.30;34.60;;;;;;4964236;28;20453;-60
2023/01/29 10:57:01;;;;;;;3.73;3.50;;;20.30;34.50;;;;;;4953280;28;20465;-66
2023/01/29 10:59:41;;;;;;;4.00;3.70;;;20.30;34.50;;;;;;4963977;28;20477;-73
2023/01/29 11:02:16;;;;;;;4.40;4.00;;;20.30;34.50;;;;;;4956878;28;20482;-65
2023/01/29 11:04:42;;;;;;;4.00;3.80;;;20.30;34.50;;;;;;4961778;28;20476;-65
2023/01/29 11:07:08;;;;;;;3.53;3.33;;;20.30;34.50;;;;;;4955167;28;20463;-67
2023/01/29 11:09:38;;;;;;;3.40;3.20;;;20.30;34.40;;;;;;4960386;28;20221;-68
2023/01/29 11:12:15;;;;;;;2.80;2.70;;;20.40;34.30;;;;;;4956915;28;20244;-69
2023/01/29 11:14:51;;;;;;;3.17;3.07;;;20.40;34.10;;;;;;4968534;28;20465;-66
2023/01/29 11:17:22;;;;;;;3.50;3.30;;;20.40;34.00;;;;;;4969354;28;20504;-65
2023/01/29 11:19:56;;;;;;;3.00;2.80;;;20.40;34.00;;;;;;4948685;28;20463;-65
2023/01/29 11:22:29;;;;;;;3.67;2.80;;;20.50;34.10;;;;;;4966757;28;21354;-69
2023/01/29 11:25:11;;;;;;;2.90;2.70;;;20.40;34.00;;;;;;4958283;28;20975;-66
2023/01/29 11:27:48;;;;;;;3.40;3.10;;;20.40;34.00;;;;;;4959831;28;20467;-66
2023/01/29 11:30:19;;;;;;;3.63;3.43;;;20.50;34.10;;;;;;4956511;28;20489;-68
2023/01/29 11:32:50;;;;;;;2.77;2.67;;;20.50;34.20;;;;;;4950439;28;20474;-65
2023/01/29 11:35:16;;;;;;;2.60;2.50;;;20.50;34.40;;;;;;4947720;28;20470;-66
2023/01/29 11:37:44;;;;;;;3.10;2.90;;;20.50;34.50;;;;;;4953951;28;21278;-65
2023/01/29 11:40:36;;;;;;;3.00;2.80;;;20.40;34.50;;;;;;4960612;28;20220;-65
2023/01/29 11:43:20;;;;;;;3.27;3.07;;;20.50;34.70;;;;;;4952192;28;20514;-63
2023/01/29 11:45:48;;;;;;;3.30;3.10;;;20.40;34.60;;;;;;4962663;28;20442;-68
2023/01/29 11:48:22;;;;;;;5.40;3.00;;;20.40;34.80;;;;;;4962500;28;21390;-68
2023/01/29 11:51:00;;;;;;;3.37;3.17;;;20.40;34.80;;;;;;4957453;28;20461;-65
2023/01/29 11:53:39;;;;;;;4.00;3.80;;;20.40;34.80;;;;;;4959930;28;21040;-66
2023/01/29 11:56:16;;;;;;;3.43;3.23;;;20.40;34.80;;;;;;4950748;28;20461;-65
2023/01/29 11:58:43;;;;;;;3.23;3.03;;;20.40;34.80;;;;;;4962816;28;20595;-65
2023/01/29 12:01:09;;;;;;;3.03;2.83;;;20.40;34.90;;;;;;4959912;28;20493;-65
2023/01/29 12:03:40;;;;;;;3.53;3.33;;;20.40;34.80;;;;;;4956978;28;21103;-64
2023/01/29 12:06:16;;;;;;;3.33;3.13;;;20.40;34.90;;;;;;4959398;28;21002;-64
2023/01/29 12:08:41;;;;;;;4.90;3.40;;;20.40;34.90;;;;;;4961163;28;20501;-70
2023/01/29 12:11:30;;;;;;;3.60;3.30;;;20.40;34.90;;;;;;4957048;28;20474;-69
2023/01/29 12:14:25;;;;;;;5.10;3.80;;;20.40;34.80;;;;;;4954271;28;20260;-65
2023/01/29 12:17:17;;;;;;;3.20;3.00;;;20.40;34.80;;;;;;4952135;28;20481;-66
2023/01/29 12:19:53;;;;;;;3.67;3.47;;;20.40;34.90;;;;;;4964132;28;20473;-65
2023/01/29 12:22:34;;;;;;;3.40;3.17;;;20.50;35.00;;;;;;4969345;28;20487;-66
2023/01/29 12:25:15;;;;;;;6.43;3.97;;;20.50;35.00;;;;;;4963292;28;20461;-71
2023/01/29 12:28:06;;;;;;;3.97;3.67;;;20.50;35.10;;;;;;4963361;28;20528;-70
2023/01/29 12:30:47;;;;;;;5.30;3.70;;;20.50;35.10;;;;;;4961657;28;20500;-65
2023/01/29 12:33:12;;;;;;;3.30;3.10;;;20.50;35.10;;;;;;4956924;28;20474;-66
2023/01/29 12:35:52;;;;;;;3.20;3.00;;;20.50;35.10;;;;;;4954552;28;20486;-67
2023/01/29 12:38:20;;;;;;;3.70;3.50;;;20.50;35.10;;;;;;4969288;28;20302;-66
2023/01/29 12:40:47;;;;;;;3.90;2.90;;;20.40;35.10;;;;;;4960520;28;20471;-64
2023/01/29 12:43:21;;;;;;;3.40;3.20;;;20.50;35.00;;;;;;4960919;28;20474;-66
2023/01/29 12:45:51;;;;;;;3.30;3.13;;;20.50;35.00;;;;;;4955270;28;20470;-67
2023/01/29 12:48:46;;;;;;;4.47;4.17;;;20.50;34.90;;;;;;4956821;28;20468;-64
2023/01/29 12:51:20;;;;;;;3.60;3.40;;;20.50;34.50;;;;;;4948266;28;20477;-65
2023/01/29 12:53:55;;;;;;;4.47;3.50;;;20.40;34.20;;;;;;4964424;28;20458;-63
2023/01/29 12:56:31;;;;;;;3.17;2.97;;;20.50;34.40;;;;;;4960611;28;21552;-64
2023/01/29 12:59:03;;;;;;;3.40;3.10;;;20.50;34.20;;;;;;4970202;28;20462;-63
2023/01/29 13:01:35;;;;;;;3.00;2.80;;;20.50;34.20;;;;;;4955153;28;20475;-65
2023/01/29 13:04:05;;;;;;;3.87;3.67;;;20.50;34.30;;;;;;4966097;28;20445;-68
2023/01/29 13:06:45;;;;;;;3.10;2.90;;;20.50;34.60;;;;;;4959939;28;20478;-68
2023/01/29 13:09:15;;;;;;;2.87;2.70;;;20.50;34.50;;;;;;4966924;28;20484;-64
2023/01/29 13:11:57;;;;;;;4.20;2.63;;;20.50;34.50;;;;;;4967358;28;20477;-63
2023/01/29 13:14:59;;;;;;;3.13;2.90;;;20.50;34.50;;;;;;4970061;28;20533;-64
2023/01/29 13:17:38;;;;;;;2.90;2.70;;;20.50;34.50;;;;;;4957687;28;20449;-64
2023/01/29 13:20:21;;;;;;;2.90;2.70;;;20.50;34.60;;;;;;4967259;28;22715;-67
2023/01/29 13:22:49;;;;;;;2.70;2.50;;;20.50;34.60;;;;;;4969611;28;20472;-68
2023/01/29 13:25:16;;;;;;;2.90;2.70;;;20.50;34.70;;;;;;4961400;28;20525;-63
2023/01/29 13:27:44;;;;;;;2.67;2.57;;;20.50;34.60;;;;;;4949713;28;20489;-64
2023/01/29 13:30:24;;;;;;;2.87;2.67;;;20.50;34.60;;;;;;4957015;28;20473;-69
2023/01/29 13:33:07;;;;;;;2.93;2.77;;;20.50;34.60;;;;;;4955623;28;20569;-64
2023/01/29 13:35:38;;;;;;;2.47;2.37;;;20.50;34.70;;;;;;4963688;28;21372;-63
2023/01/29 13:38:14;;;;;;;2.93;2.73;;;20.50;34.60;;;;;;4956058;28;20565;-65
2023/01/29 13:40:49;;;;;;;2.57;2.47;;;20.50;34.60;;;;;;4962110;28;20504;-66